createdAt,value
2023-01-05T00:01:46.567Z,98402.63
2023-01-05T00:04:58.512Z,98399.97
2023-01-05T00:08:11.168Z,98394.94
2023-01-05T00:11:40.628Z,98383.51
2023-01-05T00:15:07.433Z,98369.58
2023-01-05T00:18:37.363Z,98367.77
2023-01-05T00:22:03.990Z,98374.06
2023-01-05T00:25:19.612Z,98368.88
2023-01-05T00:28:31.395Z,98366.66
2023-01-05T00:31:43.327Z,98366.23
2023-01-05T00:34:57.382Z,98354.80
2023-01-05T00:38:09.308Z,98361.64
2023-01-05T00:41:23.086Z,98360.64
2023-01-05T00:44:34.833Z,98352.55
2023-01-05T00:47:47.583Z,98348.78
2023-01-05T00:50:59.500Z,98345.84
2023-01-05T00:54:12.633Z,98352.52
2023-01-05T00:57:24.525Z,98344.14
2023-01-05T01:00:42.325Z,98325.17
2023-01-05T01:03:52.106Z,98310.13
2023-01-05T01:07:04.469Z,98307.59
2023-01-05T01:10:18.197Z,98298.84
2023-01-05T01:13:30.743Z,98305.94
2023-01-05T01:16:44.219Z,98288.36
2023-01-05T01:19:56.587Z,98286.70
2023-01-05T01:23:08.736Z,98275.27
2023-01-05T01:26:21.540Z,98282.25
2023-01-05T01:29:33.854Z,98282.10
2023-01-05T01:32:45.847Z,98272.47
2023-01-05T01:35:57.910Z,98281.56
2023-01-05T01:39:10.097Z,98268.32
2023-01-05T01:42:25.047Z,98260.38
2023-01-05T01:45:38.447Z,98261.19
2023-01-05T01:48:59.188Z,98258.41
2023-01-05T01:52:12.206Z,98260.91
2023-01-05T01:55:25.838Z,98270.77
2023-01-05T01:58:38.878Z,98257.27
2023-01-05T02:01:51.269Z,98257.27
2023-01-05T02:05:09.418Z,98245.39
2023-01-05T02:08:24.733Z,98229.50
2023-01-05T02:11:47.995Z,98209.98
2023-01-05T02:15:08.517Z,98222.80
2023-01-05T02:18:44.573Z,98203.78
2023-01-05T02:22:03.538Z,98208.48
2023-01-05T02:25:57.075Z,98198.29
2023-01-05T02:29:49.624Z,98194.20
2023-01-05T02:33:08.487Z,98200.34
2023-01-05T02:36:28.889Z,98189.19
2023-01-05T02:39:48.270Z,98184.36
2023-01-05T02:43:03.351Z,98178.38
2023-01-05T02:46:16.239Z,98182.39
2023-01-05T02:49:28.789Z,98186.69
2023-01-05T02:52:46.751Z,98191.55
2023-01-05T02:56:06.802Z,98179.83
2023-01-05T02:59:25.124Z,98173.23
2023-01-05T03:02:38.961Z,98183.16
2023-01-05T03:05:58.104Z,98195.25
2023-01-05T03:09:12.782Z,98177.77
2023-01-05T03:12:44.464Z,98174.36
2023-01-05T03:16:01.596Z,98170.34
2023-01-05T03:19:32.972Z,98166.56
2023-01-05T03:23:00.329Z,98161.39
2023-01-05T03:26:30.085Z,98142.03
2023-01-05T03:29:57.525Z,98144.53
2023-01-05T03:33:29.023Z,98126.19
2023-01-05T03:36:48.106Z,98128.02
2023-01-05T03:40:00.233Z,98111.88
2023-01-05T03:43:14.708Z,98118.86
2023-01-05T03:46:28.662Z,98126.81
2023-01-05T03:49:41.579Z,98115.45
2023-01-05T03:52:53.949Z,98121.27
2023-01-05T03:56:06.308Z,98117.65
2023-01-05T03:59:18.360Z,98112.38
2023-01-05T04:02:30.659Z,98100.29
2023-01-05T04:05:43.532Z,98109.53
2023-01-05T04:11:56.496Z,98100.48
2023-01-05T04:15:09.511Z,98096.02
2023-01-05T04:18:22.276Z,98093.53
2023-01-05T04:21:35.032Z,98103.30
2023-01-05T04:24:48.085Z,98097.16
2023-01-05T04:28:02.030Z,98099.80
2023-01-05T04:31:14.668Z,98100.81
2023-01-05T04:34:28.742Z,98096.86
2023-01-05T04:37:41.678Z,98088.64
2023-01-05T04:40:57.724Z,98102.74
2023-01-05T04:44:11.837Z,98096.14
2023-01-05T04:47:23.877Z,98099.02
2023-01-05T04:50:36.210Z,98095.13
2023-01-05T04:53:50.147Z,98098.83
2023-01-05T04:57:04.378Z,98105.14
2023-01-05T05:00:19.042Z,98101.86
2023-01-05T05:03:33.321Z,98074.14
2023-01-05T05:06:46.739Z,98090.56
2023-01-05T05:09:59.545Z,98073.84
2023-01-05T05:13:12.161Z,98081.48
2023-01-05T05:16:24.538Z,98085.94
2023-01-05T05:19:37.513Z,98077.17
2023-01-05T05:22:49.705Z,98087.11
2023-01-05T05:26:02.863Z,98104.00
2023-01-05T05:29:15.148Z,98092.17
2023-01-05T05:32:27.038Z,98074.66
2023-01-05T05:35:39.192Z,98073.73
2023-01-05T05:38:51.356Z,98077.17
2023-01-05T05:42:03.176Z,98066.80
2023-01-05T05:45:17.008Z,98078.72
2023-01-05T05:48:28.946Z,98092.81
2023-01-05T05:51:41.153Z,98087.67
2023-01-05T05:54:53.100Z,98096.54
2023-01-05T05:58:04.991Z,98084.55
2023-01-05T06:01:17.551Z,98094.53
2023-01-05T06:04:29.483Z,98084.02
2023-01-05T06:07:41.447Z,98077.36
2023-01-05T06:10:54.586Z,98080.69
2023-01-05T06:14:07.807Z,98086.30
2023-01-05T06:17:20.009Z,98085.11
2023-01-05T06:20:31.918Z,98088.56
2023-01-05T06:23:43.903Z,98081.37
2023-01-05T06:26:55.846Z,98077.81
2023-01-05T06:30:08.330Z,98071.67
2023-01-05T06:33:20.513Z,98077.20
2023-01-05T06:36:32.517Z,98085.00
2023-01-05T06:39:44.769Z,98086.64
2023-01-05T06:42:56.909Z,98087.20
2023-01-05T06:46:09.426Z,98087.20
2023-01-05T06:49:21.745Z,98083.86
2023-01-05T06:52:35.744Z,98092.79
2023-01-05T06:55:47.891Z,98100.22
2023-01-05T06:58:59.863Z,98101.67
2023-01-05T07:02:13.588Z,98096.50
2023-01-05T07:05:26.650Z,98099.31
2023-01-05T07:08:38.771Z,98104.94
2023-01-05T07:11:50.708Z,98107.58
2023-01-05T07:15:02.807Z,98109.39
2023-01-05T07:18:14.929Z,98124.97
2023-01-05T07:21:26.959Z,98152.08
2023-01-05T07:24:39.212Z,98181.78
2023-01-05T07:27:56.110Z,98207.94
2023-01-05T07:31:08.969Z,98197.00
2023-01-05T07:34:21.112Z,98209.66
2023-01-05T07:37:33.348Z,98232.73
2023-01-05T07:40:45.357Z,98228.38
2023-01-05T07:43:57.812Z,98234.04
2023-01-05T07:47:09.787Z,98214.86
2023-01-05T07:50:21.788Z,98227.23
2023-01-05T07:53:41.315Z,98240.33
2023-01-05T07:56:48.741Z,98228.22
2023-01-05T08:00:00.933Z,98218.38
2023-01-05T08:03:15.103Z,98218.68
2023-01-05T08:06:29.656Z,98213.84
2023-01-05T08:09:56.410Z,98205.36
2023-01-05T08:13:28.880Z,98209.79
2023-01-05T08:16:42.994Z,98201.97
2023-01-05T08:19:54.930Z,98211.17
2023-01-05T08:23:07.039Z,98216.48
2023-01-05T08:26:22.414Z,98224.27
2023-01-05T08:29:34.725Z,98235.69
2023-01-05T08:32:47.404Z,98234.84
2023-01-05T08:35:59.414Z,98243.16
2023-01-05T08:39:13.757Z,98234.98
2023-01-05T08:42:25.621Z,98227.16
2023-01-05T08:45:38.070Z,98227.31
2023-01-05T08:48:54.052Z,98233.44
2023-01-05T08:52:07.607Z,98221.06
2023-01-05T08:55:20.332Z,98236.23
2023-01-05T08:58:32.666Z,98226.90
2023-01-05T09:01:44.792Z,98230.50
2023-01-05T09:04:57.090Z,98230.95
2023-01-05T09:08:09.612Z,98227.61
2023-01-05T09:11:25.612Z,98221.48
2023-01-05T09:14:37.710Z,98221.48
2023-01-05T09:17:49.978Z,98221.63
2023-01-05T09:21:04.419Z,98223.28
2023-01-05T09:24:18.719Z,98219.52
2023-01-05T09:27:31.945Z,98223.56
2023-01-05T09:30:50.221Z,98222.31
2023-01-05T09:33:58.561Z,98232.34
2023-01-05T09:37:10.643Z,98225.26
2023-01-05T09:40:22.970Z,98227.60
2023-01-05T09:43:39.864Z,98215.34
2023-01-05T09:46:55.651Z,98220.61
2023-01-05T09:50:09.068Z,98227.55
2023-01-05T09:53:24.944Z,98221.91
2023-01-05T09:59:58.821Z,98219.80
2023-01-05T10:03:44.629Z,98213.39
2023-01-05T10:06:37.363Z,98218.80
2023-01-05T10:09:50.576Z,98214.50
2023-01-05T10:13:08.256Z,98211.85
2023-01-05T10:16:29.071Z,98212.13
2023-01-05T10:19:38.087Z,98214.09
2023-01-05T10:23:02.231Z,98208.20
2023-01-05T10:26:19.456Z,98206.83
2023-01-05T10:29:36.906Z,98197.92
2023-01-05T10:33:22.055Z,98199.19
2023-01-05T10:36:48.867Z,98203.50
2023-01-05T10:39:43.942Z,98199.30
2023-01-05T10:43:07.943Z,98192.15
2023-01-05T10:46:41.949Z,98184.89
2023-01-05T10:49:38.575Z,98180.97
2023-01-05T10:52:51.595Z,98179.06
2023-01-05T10:56:09.643Z,98176.83
2023-01-05T10:59:22.301Z,98176.23
2023-01-05T11:02:39.201Z,98167.97
2023-01-05T11:05:54.194Z,98175.11
2023-01-05T11:09:22.713Z,98161.70
2023-01-05T11:12:35.486Z,98167.25
2023-01-05T11:15:53.745Z,98167.09
2023-01-05T11:19:10.608Z,98157.98
2023-01-05T11:22:40.057Z,98150.44
2023-01-05T11:25:52.225Z,98144.69
2023-01-05T11:29:24.733Z,98152.55
2023-01-05T11:32:36.816Z,98148.17
2023-01-05T11:35:51.135Z,98149.21
2023-01-05T11:39:04.928Z,98146.11
2023-01-05T11:42:28.346Z,98145.63
2023-01-05T11:45:48.848Z,98141.78
2023-01-05T11:49:03.074Z,98139.28
2023-01-05T11:52:32.705Z,98145.56
2023-01-05T11:55:46.260Z,98142.91
2023-01-05T11:59:00.316Z,98137.61
2023-01-05T12:02:36.254Z,98131.69
2023-01-05T12:05:54.570Z,98149.64
2023-01-05T12:09:13.620Z,98147.98
2023-01-05T12:12:49.561Z,98150.64
2023-01-05T12:16:26.099Z,98148.60
2023-01-05T12:20:02.143Z,98158.14
2023-01-05T12:23:29.183Z,98154.97
2023-01-05T12:26:46.736Z,98159.06
2023-01-05T12:34:18.951Z,98163.00
2023-01-05T12:37:41.086Z,98155.05
2023-01-05T12:41:25.616Z,98170.43
2023-01-05T12:45:31.307Z,98154.89
2023-01-05T12:48:44.138Z,98159.73
2023-01-05T12:52:01.021Z,98158.19
2023-01-05T12:55:18.956Z,98157.72
2023-01-05T12:58:37.000Z,98169.61
2023-01-05T13:01:57.540Z,98178.06
2023-01-05T13:05:16.854Z,98186.54
2023-01-05T13:08:36.212Z,98182.41
2023-01-05T13:11:52.229Z,98180.19
2023-01-05T13:15:25.193Z,98171.82
2023-01-05T13:18:41.570Z,98177.06
2023-01-05T13:21:54.638Z,98171.03
2023-01-05T13:25:13.578Z,98170.61
2023-01-05T13:28:31.934Z,98156.35
2023-01-05T13:32:15.638Z,98156.98
2023-01-05T13:35:49.464Z,98154.27
2023-01-05T13:39:37.110Z,98149.73
2023-01-05T13:43:19.192Z,98143.40
2023-01-05T13:47:27.500Z,98139.83
2023-01-05T13:51:10.526Z,98204.23
2023-01-05T13:54:43.591Z,98233.61
2023-01-05T13:57:52.683Z,98233.42
2023-01-05T14:01:05.398Z,98265.34
2023-01-05T14:04:27.533Z,98279.02
2023-01-05T14:07:44.462Z,98296.08
2023-01-05T14:11:21.838Z,98309.21
2023-01-05T14:14:39.164Z,98316.98
2023-01-05T14:18:02.680Z,98332.81
2023-01-05T14:21:39.132Z,98318.41
2023-01-05T14:24:52.436Z,98293.09
2023-01-05T14:28:46.756Z,98290.68
2023-01-05T14:31:58.913Z,98306.95
2023-01-05T14:35:27.353Z,98267.38
2023-01-05T14:38:42.540Z,98284.00
2023-01-05T14:42:07.008Z,98282.74
2023-01-05T14:45:31.498Z,98297.46
2023-01-05T14:48:48.436Z,98315.67
2023-01-05T14:52:06.172Z,98308.56
2023-01-05T14:55:38.360Z,98326.09
2023-01-05T14:59:06.322Z,98326.66
2023-01-05T15:02:26.368Z,98317.78
2023-01-05T15:05:39.932Z,98311.38
2023-01-05T15:09:22.806Z,98309.43
2023-01-05T15:13:14.659Z,98296.23
2023-01-05T15:16:31.810Z,98294.28
2023-01-05T15:19:55.144Z,98290.55
2023-01-05T15:23:58.503Z,98300.58
2023-01-05T15:27:37.225Z,98279.86
2023-01-05T15:34:47.541Z,98286.98
2023-01-05T15:37:59.693Z,98280.60
2023-01-05T15:41:19.436Z,98275.88
2023-01-05T15:44:36.308Z,98280.76
2023-01-05T15:47:48.600Z,98278.81
2023-01-05T15:51:03.203Z,98297.72
2023-01-05T15:54:31.663Z,98303.71
2023-01-05T15:57:44.263Z,98298.28
2023-01-05T16:01:11.908Z,98300.08
2023-01-05T16:04:24.395Z,98290.64
2023-01-05T16:07:37.498Z,98300.92
2023-01-05T16:10:53.561Z,98286.31
2023-01-05T16:14:09.032Z,98297.59
2023-01-05T16:17:26.048Z,98284.40
2023-01-05T16:20:39.747Z,98279.91
2023-01-05T16:23:56.572Z,98294.97
2023-01-05T16:27:12.873Z,98299.84
2023-01-05T16:30:38.553Z,98295.83
2023-01-05T16:33:51.153Z,98297.77
2023-01-05T16:37:22.608Z,98299.72
2023-01-05T16:44:36.435Z,98300.81
2023-01-05T16:56:01.183Z,98347.08
2023-01-05T16:59:34.606Z,98347.75
2023-01-05T17:03:08.708Z,98350.36
2023-01-05T17:06:28.709Z,98364.28
2023-01-05T17:09:43.385Z,98372.36
2023-01-05T17:13:02.606Z,98358.29
2023-01-05T17:16:18.557Z,98353.95
2023-01-05T17:19:40.057Z,98370.95
2023-01-05T17:22:52.172Z,98380.94
2023-01-05T17:26:09.389Z,98380.94
2023-01-05T17:29:27.111Z,98389.41
2023-01-05T17:36:20.264Z,98415.59
2023-01-05T17:47:51.522Z,98419.73
2023-01-05T18:02:18.335Z,98449.90
2023-01-05T18:05:30.555Z,98449.06
2023-01-05T18:11:54.457Z,98460.86
2023-01-05T18:15:06.772Z,98471.58
2023-01-05T18:18:21.495Z,98474.33
2023-01-05T18:21:35.855Z,98490.07
2023-01-05T18:25:02.452Z,98490.77
2023-01-05T18:31:54.907Z,98491.34
2023-01-05T18:52:10.838Z,98523.44
2023-01-05T18:55:23.162Z,98540.99
2023-01-05T19:07:23.768Z,98559.49
2023-01-05T19:10:48.153Z,98557.80
2023-01-05T19:14:03.179Z,98567.66
2023-01-05T19:17:15.313Z,98572.00
2023-01-05T19:29:06.444Z,98585.20
2023-01-05T19:32:19.001Z,98591.45
2023-01-05T19:35:33.241Z,98598.42
2023-01-05T19:38:46.712Z,98599.52
2023-01-05T19:41:58.959Z,98607.81
2023-01-05T19:45:13.618Z,98613.03
2023-01-05T19:48:25.872Z,98630.68
2023-01-05T19:51:38.322Z,98630.23
2023-01-05T19:54:51.195Z,98651.61
2023-01-05T19:58:03.620Z,98655.36
2023-01-05T20:01:20.523Z,98658.11
2023-01-05T20:04:32.868Z,98654.17
2023-01-05T20:07:48.021Z,98654.89
2023-01-05T20:11:00.620Z,98652.61
2023-01-05T20:14:17.192Z,98676.88
2023-01-05T20:17:29.858Z,98695.86
2023-01-05T20:20:42.286Z,98684.70
2023-01-05T20:23:54.566Z,98692.89
2023-01-05T20:27:11.063Z,98694.23
2023-01-05T20:30:23.983Z,98707.66
2023-01-05T20:33:36.460Z,98719.19
2023-01-05T20:36:50.345Z,98716.91
2023-01-05T20:40:05.898Z,98733.25
2023-01-05T20:43:18.128Z,98752.30
2023-01-05T20:46:33.324Z,98762.13
2023-01-05T20:49:47.153Z,98779.09
2023-01-05T20:52:59.301Z,98774.02
2023-01-05T20:56:16.792Z,98794.84
2023-01-05T20:59:33.087Z,98778.66
2023-01-05T21:02:45.510Z,98790.86
2023-01-05T21:05:57.973Z,98794.23
2023-01-05T21:09:11.338Z,98803.63
2023-01-05T21:12:24.477Z,98802.20
2023-01-05T21:15:36.691Z,98815.38
2023-01-05T21:18:49.902Z,98811.93
2023-01-05T21:22:03.559Z,98814.05
2023-01-05T21:25:16.704Z,98818.27
2023-01-05T21:28:29.998Z,98819.97
2023-01-05T21:31:42.972Z,98827.27
2023-01-05T21:34:55.349Z,98827.70
2023-01-05T21:38:07.670Z,98836.55
2023-01-05T21:44:22.824Z,98845.91
2023-01-05T22:16:52.301Z,98921.84
2023-01-05T22:20:04.252Z,98929.85
2023-01-05T22:23:17.715Z,98926.37
2023-01-05T22:26:29.640Z,98939.34
2023-01-05T22:29:42.071Z,98939.96
2023-01-05T22:32:58.330Z,98952.28
2023-01-05T22:36:12.216Z,98946.81
2023-01-05T22:39:24.957Z,98962.08
2023-01-05T22:42:37.105Z,98961.65
2023-01-05T22:45:49.194Z,98969.44
2023-01-05T22:49:03.042Z,98974.51
2023-01-05T22:52:15.138Z,98983.89
2023-01-05T22:55:27.095Z,98979.23
2023-01-05T22:58:39.609Z,98982.06
2023-01-05T23:01:52.324Z,98986.52
2023-01-05T23:05:04.354Z,98991.79
2023-01-05T23:08:16.472Z,98999.35
2023-01-05T23:11:30.717Z,99006.32
2023-01-05T23:14:42.828Z,99012.64
2023-01-05T23:17:54.943Z,99024.14
2023-01-05T23:21:10.741Z,99042.25
2023-01-05T23:24:22.999Z,99030.97
2023-01-05T23:27:35.596Z,99040.89
2023-01-05T23:30:48.161Z,99056.39
2023-01-05T23:34:01.199Z,99057.23
2023-01-05T23:37:13.184Z,99062.51
2023-01-05T23:40:25.191Z,99065.03
2023-01-05T23:43:38.456Z,99062.59
2023-01-05T23:46:50.542Z,99080.84
2023-01-05T23:50:02.743Z,99087.16
2023-01-05T23:53:16.263Z,99089.80
2023-01-05T23:56:31.877Z,99086.53
2023-01-05T23:59:43.877Z,99092.54
